Great — TCYV6 — position and weather

sailwx.info

Track history (hours):
 
Tides and Currents Weather Stations Pressure Air Temp Water Temp Dewpoint Dewpoint Depression Visibility Wind Speed Wind Dir Waves Ship Positions

Great

Last reported at 2017-May-19 10:41 UTC. Time now 2017-May-27 15:51 UTC.
Position N 36°45' E 014°24'.
Warning: this ship's position is 8 days out of date.

Length 186 m; draft 7.1 m.

Type: Cargo ship. MMSI: 271042241.

Date/timePositionNaut miles runAvg speedWind from/ knotsBaromVisibWave heightAir tempDewpointWater temp
2017-May-19 10:41N 36°45' E 014°24'212.0
2017-May-19 10:29N 36°46' E 014°21'612.3
2017-May-19 10:00N 36°49' E 014°15'612.2
2017-May-19 09:30N 36°51' E 014°08'612.0
2017-May-19 08:59N 36°54' E 014°00'611.8
2017-May-19 08:30N 36°56' E 013°54'611.8
2017-May-19 08:00N 36°59' E 013°47'611.6
2017-May-19 07:30N 37°01' E 013°41'9711.3
2017-May-18 22:55N 37°44' E 011°51'1011.3
2017-May-18 22:01N 37°49' E 011°40'011.3
2017-May-18 22:00N 37°49' E 011°40'611.4
2017-May-18 21:30N 37°51' E 011°33'611.6
2017-May-18 21:00N 37°54' E 011°27'2611.4
2017-May-18 18:42N 38°03' E 010°56'211.6
2017-May-18 18:31N 38°03' E 010°53'611.3
2017-May-18 17:59N 38°04' E 010°45'5611.2
2017-May-18 12:59N 38°12' E 009°35'711.1
2017-May-18 12:22N 38°13' E 009°26'1311.0
2017-May-18 11:10N 38°15' E 009°10'411.0
2017-May-18 10:50N 38°15' E 009°05'510.9
2017-May-18 10:24N 38°16' E 008°59'511.0
2017-May-18 10:00N 38°17' E 008°53'611.0
2017-May-18 09:29N 38°18' E 008°46'510.9
2017-May-18 09:00N 38°19' E 008°40'610.9
2017-May-18 08:26N 38°20' E 008°32'510.8
2017-May-18 08:00N 38°21' E 008°26'710.6
2017-May-18 07:18N 38°23' E 008°17'910.6
2017-May-18 06:29N 38°24' E 008°06'710.9
2017-May-18 05:50N 38°25' E 007°57'410.5
2017-May-18 05:28N 38°26' E 007°52'510.5
2017-May-18 04:59N 38°26' E 007°46'610.5
2017-May-18 04:27N 38°27' E 007°39'510.7
2017-May-18 03:59N 38°27' E 007°32'510.6
2017-May-18 03:30N 38°28' E 007°26'710.4
2017-May-18 02:48N 38°29' E 007°16'410.4
2017-May-18 02:25N 38°30' E 007°12'510.5
2017-May-18 01:57N 38°31' E 007°05'510.7
2017-May-18 01:28N 38°31' E 006°59'510.9
2017-May-18 01:00N 38°32' E 006°52'3510.9
2017-May-17 21:45N 38°37' E 006°07'311.2
2017-May-17 21:30N 38°38' E 006°04'611.3
2017-May-17 21:00N 38°39' E 005°57'2911.1
2017-May-17 18:22N 38°44' E 005°20'511.2
2017-May-17 17:55N 38°45' E 005°14'611.1
2017-May-17 17:25N 38°46' E 005°06'613.3
2017-May-17 16:59N 38°47' E 004°59'3211.2
2017-May-17 14:08N 38°52' E 004°18'5011.3
2017-May-17 09:41N 38°60' E 003°15'211.4
2017-May-17 09:30N 39°00' E 003°12'611.2
2017-May-17 09:00N 39°02' E 003°05'711.0
2017-May-17 08:23N 39°03' E 002°57'410.7
2017-May-17 07:59N 39°04' E 002°51'510.9
2017-May-17 07:30N 39°06' E 002°45'1011.1
2017-May-17 06:35N 39°09' E 002°33'211.2
2017-May-17 06:26N 39°10' E 002°31'511.1
2017-May-17 06:00N 39°12' E 002°25'611.2
2017-May-17 05:30N 39°14' E 002°19'611.2
2017-May-17 05:00N 39°16' E 002°12'611.1
2017-May-17 04:30N 39°18' E 002°05'611.4
2017-May-17 04:00N 39°21' E 001°58'711.5
2017-May-17 03:24N 39°23' E 001°50'511.3
2017-May-17 03:00N 39°24' E 001°44'611.3
2017-May-17 02:30N 39°26' E 001°38'811.4
2017-May-17 01:46N 39°29' E 001°27'411.5
2017-May-17 01:25N 39°30' E 001°22'3011.6
2017-May-16 22:48N 39°41' E 000°46'1011.8
2017-May-16 21:58N 39°45' E 000°34'28 0.7
2017-May-15 03:35N 39°58' E 000°02'0 0.0
2017-May-15 03:14N 39°58' E 000°02'0 0.0
2017-May-15 02:58N 39°58' E 000°02'0 0.0
2017-May-15 02:16N 39°58' E 000°02'0 0.0
2017-May-14 10:47N 39°58' E 000°02'0 0.0
2017-May-14 10:17N 39°58' E 000°02'  
2017-May-11 15:10N 39°29' E 001°29'210.6
2017-May-11 14:57N 39°28' E 001°32'1010.6
2017-May-11 13:58N 39°24' E 001°45'610.7
2017-May-11 13:24N 39°22' E 001°52'410.5
2017-May-11 12:59N 39°20' E 001°57'510.3
2017-May-11 12:30N 39°18' E 002°03'510.2
2017-May-11 12:00N 39°16' E 002°09'510.2
2017-May-11 11:30N 39°14' E 002°15'510.0
2017-May-11 10:59N 39°13' E 002°22'5 9.6
2017-May-11 10:30N 39°11' E 002°27'5 9.5
2017-May-11 10:00N 39°09' E 002°33'5 9.7
2017-May-11 09:30N 39°07' E 002°39'510.1
2017-May-11 09:00N 39°05' E 002°45'510.1
2017-May-11 08:30N 39°04' E 002°51'5 9.9
2017-May-11 08:00N 39°02' E 002°57'5 9.8
2017-May-11 07:30N 39°01' E 003°03'510.0
2017-May-11 07:00N 38°59' E 003°09'510.2
2017-May-11 06:30N 38°58' E 003°16'510.2
2017-May-11 06:00N 38°57' E 003°22'510.4
2017-May-11 05:30N 38°56' E 003°29'1110.3
2017-May-11 04:26N 38°54' E 003°42'710.3
2017-May-11 03:45N 38°53' E 003°51'23810.9
2017-May-10 05:54N 38°17' E 008°52'510.9
2017-May-10 05:24N 38°16' E 008°59'410.8
2017-May-10 04:59N 38°16' E 009°04'510.7
2017-May-10 04:30N 38°15' E 009°11'610.8
2017-May-10 03:57N 38°14' E 009°18'510.7
2017-May-10 03:29N 38°13' E 009°24'910.6
2017-May-10 02:40N 38°12' E 009°35'210.7
2017-May-10 02:30N 38°12' E 009°37'510.6
2017-May-10 01:59N 38°11' E 009°44'1410.5
2017-May-10 00:40N 38°09' E 010°02'  
Track history (hours):
 
Tides and Currents Weather Stations Pressure Air Temp Water Temp Dewpoint Dewpoint Depression Visibility Wind Speed Wind Dir Waves Ship Positions

Great

Last reported at 2017-May-19 10:41 UTC. Time now 2017-May-27 15:51 UTC.
Position N 36°45' E 014°24'.
Warning: this ship's position is 8 days out of date.

Length 186 m; draft 7.1 m.

Type: Cargo ship. MMSI: 271042241.

Date/timePositionNaut miles runAvg speedWind from/ knotsBaromVisibWave heightAir tempDewpointWater temp
2017-May-19 10:41N 36°45' E 014°24'212.0
2017-May-19 10:29N 36°46' E 014°21'612.3
2017-May-19 10:00N 36°49' E 014°15'612.2
2017-May-19 09:30N 36°51' E 014°08'612.0
2017-May-19 08:59N 36°54' E 014°00'611.8
2017-May-19 08:30N 36°56' E 013°54'611.8
2017-May-19 08:00N 36°59' E 013°47'611.6
2017-May-19 07:30N 37°01' E 013°41'9711.3
2017-May-18 22:55N 37°44' E 011°51'1011.3
2017-May-18 22:01N 37°49' E 011°40'011.3
2017-May-18 22:00N 37°49' E 011°40'611.4
2017-May-18 21:30N 37°51' E 011°33'611.6
2017-May-18 21:00N 37°54' E 011°27'2611.4
2017-May-18 18:42N 38°03' E 010°56'211.6
2017-May-18 18:31N 38°03' E 010°53'611.3
2017-May-18 17:59N 38°04' E 010°45'5611.2
2017-May-18 12:59N 38°12' E 009°35'711.1
2017-May-18 12:22N 38°13' E 009°26'1311.0
2017-May-18 11:10N 38°15' E 009°10'411.0
2017-May-18 10:50N 38°15' E 009°05'510.9
2017-May-18 10:24N 38°16' E 008°59'511.0
2017-May-18 10:00N 38°17' E 008°53'611.0
2017-May-18 09:29N 38°18' E 008°46'510.9
2017-May-18 09:00N 38°19' E 008°40'610.9
2017-May-18 08:26N 38°20' E 008°32'510.8
2017-May-18 08:00N 38°21' E 008°26'710.6
2017-May-18 07:18N 38°23' E 008°17'910.6
2017-May-18 06:29N 38°24' E 008°06'710.9
2017-May-18 05:50N 38°25' E 007°57'410.5
2017-May-18 05:28N 38°26' E 007°52'510.5
2017-May-18 04:59N 38°26' E 007°46'610.5
2017-May-18 04:27N 38°27' E 007°39'510.7
2017-May-18 03:59N 38°27' E 007°32'510.6
2017-May-18 03:30N 38°28' E 007°26'710.4
2017-May-18 02:48N 38°29' E 007°16'410.4
2017-May-18 02:25N 38°30' E 007°12'510.5
2017-May-18 01:57N 38°31' E 007°05'510.7
2017-May-18 01:28N 38°31' E 006°59'510.9
2017-May-18 01:00N 38°32' E 006°52'3510.9
2017-May-17 21:45N 38°37' E 006°07'311.2
2017-May-17 21:30N 38°38' E 006°04'611.3
2017-May-17 21:00N 38°39' E 005°57'2911.1
2017-May-17 18:22N 38°44' E 005°20'511.2
2017-May-17 17:55N 38°45' E 005°14'611.1
2017-May-17 17:25N 38°46' E 005°06'613.3
2017-May-17 16:59N 38°47' E 004°59'3211.2
2017-May-17 14:08N 38°52' E 004°18'5011.3
2017-May-17 09:41N 38°60' E 003°15'211.4
2017-May-17 09:30N 39°00' E 003°12'611.2
2017-May-17 09:00N 39°02' E 003°05'711.0
2017-May-17 08:23N 39°03' E 002°57'410.7
2017-May-17 07:59N 39°04' E 002°51'510.9
2017-May-17 07:30N 39°06' E 002°45'1011.1
2017-May-17 06:35N 39°09' E 002°33'211.2
2017-May-17 06:26N 39°10' E 002°31'511.1
2017-May-17 06:00N 39°12' E 002°25'611.2
2017-May-17 05:30N 39°14' E 002°19'611.2
2017-May-17 05:00N 39°16' E 002°12'611.1
2017-May-17 04:30N 39°18' E 002°05'611.4
2017-May-17 04:00N 39°21' E 001°58'711.5
2017-May-17 03:24N 39°23' E 001°50'511.3
2017-May-17 03:00N 39°24' E 001°44'611.3
2017-May-17 02:30N 39°26' E 001°38'811.4
2017-May-17 01:46N 39°29' E 001°27'411.5
2017-May-17 01:25N 39°30' E 001°22'3011.6
2017-May-16 22:48N 39°41' E 000°46'1011.8
2017-May-16 21:58N 39°45' E 000°34'28 0.7
2017-May-15 03:35N 39°58' E 000°02'0 0.0
2017-May-15 03:14N 39°58' E 000°02'0 0.0
2017-May-15 02:58N 39°58' E 000°02'0 0.0
2017-May-15 02:16N 39°58' E 000°02'0 0.0
2017-May-14 10:47N 39°58' E 000°02'0 0.0
2017-May-14 10:17N 39°58' E 000°02'  
2017-May-11 15:10N 39°29' E 001°29'210.6
2017-May-11 14:57N 39°28' E 001°32'1010.6
2017-May-11 13:58N 39°24' E 001°45'610.7
2017-May-11 13:24N 39°22' E 001°52'410.5
2017-May-11 12:59N 39°20' E 001°57'510.3
2017-May-11 12:30N 39°18' E 002°03'510.2
2017-May-11 12:00N 39°16' E 002°09'510.2
2017-May-11 11:30N 39°14' E 002°15'510.0
2017-May-11 10:59N 39°13' E 002°22'5 9.6
2017-May-11 10:30N 39°11' E 002°27'5 9.5
2017-May-11 10:00N 39°09' E 002°33'5 9.7
2017-May-11 09:30N 39°07' E 002°39'510.1
2017-May-11 09:00N 39°05' E 002°45'510.1
2017-May-11 08:30N 39°04' E 002°51'5 9.9
2017-May-11 08:00N 39°02' E 002°57'5 9.8
2017-May-11 07:30N 39°01' E 003°03'510.0
2017-May-11 07:00N 38°59' E 003°09'510.2
2017-May-11 06:30N 38°58' E 003°16'510.2
2017-May-11 06:00N 38°57' E 003°22'510.4
2017-May-11 05:30N 38°56' E 003°29'1110.3
2017-May-11 04:26N 38°54' E 003°42'710.3
2017-May-11 03:45N 38°53' E 003°51'23810.9
2017-May-10 05:54N 38°17' E 008°52'510.9
2017-May-10 05:24N 38°16' E 008°59'410.8
2017-May-10 04:59N 38°16' E 009°04'510.7
2017-May-10 04:30N 38°15' E 009°11'610.8
2017-May-10 03:57N 38°14' E 009°18'510.7
2017-May-10 03:29N 38°13' E 009°24'910.6
2017-May-10 02:40N 38°12' E 009°35'210.7
2017-May-10 02:30N 38°12' E 009°37'510.6
2017-May-10 01:59N 38°11' E 009°44'1410.5
2017-May-10 00:40N 38°09' E 010°02'  

Dump ship's entire track history